Time;durP1;ratioP1;P1;durP2;ratioP2;P2;SDS_P1;SDS_P2;PMS_P1;PMS_P2;Temp;Humidity;BMP_temperature;BMP_pressure;BME280_temperature;BME280_humidity;BME280_pressure;Samples;Min_cycle;Max_cycle;Signal;HPM_P1;HPM_P2
2022/04/02 00:02:21;;;;;;;5.60;2.45;;;;;;;2.53;87.96;101418.03;5303059;28;20020;-69
2022/04/02 00:04:52;;;;;;;6.38;2.55;;;;;;;2.62;86.88;101422.84;5306728;28;20499;-68
2022/04/02 00:07:23;;;;;;;4.20;2.10;;;;;;;2.60;86.97;101416.88;5301721;28;20548;-69
2022/04/02 00:09:55;;;;;;;3.83;2.38;;;;;;;2.60;87.05;101424.63;5303877;28;20060;-69
2022/04/02 00:12:26;;;;;;;6.10;2.42;;;;;;;2.60;86.92;101429.81;5308069;28;20473;-68
2022/04/02 00:14:57;;;;;;;6.97;2.45;;;;;;;2.61;86.42;101431.50;5306857;28;20027;-70
2022/04/02 00:17:29;;;;;;;5.93;2.38;;;;;;;2.60;86.23;101424.63;5306811;28;20062;-68
2022/04/02 00:20:00;;;;;;;5.70;2.80;;;;;;;2.62;86.73;101427.16;5306477;28;20044;-69
2022/04/02 00:22:31;;;;;;;4.65;2.40;;;;;;;2.60;86.78;101426.38;5302822;28;20035;-69
2022/04/02 00:25:03;;;;;;;4.97;2.20;;;;;;;2.62;86.56;101424.59;5302166;28;20415;-69
2022/04/02 00:27:34;;;;;;;4.90;2.28;;;;;;;2.63;87.05;101432.28;5306015;28;20276;-68
2022/04/02 00:30:06;;;;;;;5.00;2.35;;;;;;;2.60;85.79;101432.38;5306859;28;20023;-69
2022/04/02 00:32:37;;;;;;;3.58;1.95;;;;;;;2.63;84.71;101432.28;5303976;28;20475;-69
2022/04/02 00:35:09;;;;;;;4.35;2.38;;;;;;;2.63;87.83;101428.84;5308531;28;20020;-69
2022/04/02 00:37:40;;;;;;;3.00;2.25;;;;;;;2.62;87.47;101430.59;5308506;28;20015;-69
2022/04/02 00:40:12;;;;;;;5.43;2.60;;;;;;;2.64;85.29;101422.75;5306231;28;20054;-69
2022/04/02 00:42:44;;;;;;;3.75;2.28;;;;;;;2.58;85.84;101417.88;5309921;28;20024;-68
2022/04/02 00:45:16;;;;;;;6.05;2.40;;;;;;;2.64;85.43;101415.00;5308666;28;20110;-69
2022/04/02 00:47:47;;;;;;;5.07;2.20;;;;;;;2.61;86.11;101423.75;5309891;28;20469;-70
2022/04/02 00:50:18;;;;;;;3.83;2.55;;;;;;;2.59;86.33;101428.13;5307754;28;20304;-69
2022/04/02 00:52:52;;;;;;;4.43;2.60;;;;;;;2.59;87.02;101424.72;5306065;28;20365;-69
2022/04/02 00:55:23;;;;;;;10.98;2.72;;;;;;;2.58;85.60;101426.47;5310933;28;20070;-69
2022/04/02 00:57:55;;;;;;;3.38;2.28;;;;;;;2.59;85.92;101422.13;5306420;28;20099;-69
2022/04/02 01:00:26;;;;;;;4.82;2.42;;;;;;;2.57;85.88;101426.50;5308854;28;20037;-69
2022/04/02 01:02:58;;;;;;;4.47;2.78;;;;;;;2.52;86.70;101418.94;5310746;28;20024;-69
2022/04/02 01:05:29;;;;;;;7.82;2.60;;;;;;;2.55;87.90;101424.00;5308612;28;20019;-69
2022/04/02 01:08:05;;;;;;;4.57;2.72;;;;;;;2.55;87.09;101430.91;5310419;28;20024;-69
2022/04/02 01:10:38;;;;;;;3.70;2.13;;;;;;;2.48;86.48;101419.97;5307192;28;20085;-69
2022/04/02 01:13:10;;;;;;;4.20;2.25;;;;;;;2.53;88.13;101412.03;5307255;28;20133;-69
2022/04/02 01:15:42;;;;;;;5.00;2.50;;;;;;;2.51;85.77;101416.44;5310893;28;20096;-69
2022/04/02 01:18:13;;;;;;;3.97;2.00;;;;;;;2.54;84.17;101431.81;5305741;28;20072;-69
2022/04/02 01:20:45;;;;;;;3.15;2.28;;;;;;;2.53;84.60;101424.97;5309151;28;20024;-68
2022/04/02 01:23:16;;;;;;;4.07;2.40;;;;;;;2.51;86.13;101426.78;5308683;28;20097;-69
2022/04/02 01:25:47;;;;;;;5.15;2.45;;;;;;;2.52;86.58;101426.72;5308876;28;20066;-69
2022/04/02 01:28:18;;;;;;;5.28;2.22;;;;;;;2.51;85.46;101424.19;5308440;28;20024;-70
2022/04/02 01:30:50;;;;;;;2.95;1.98;;;;;;;2.51;85.48;101427.63;5306466;28;20035;-69
2022/04/02 01:33:21;;;;;;;3.65;2.35;;;;;;;2.49;86.68;101428.56;5309961;28;20023;-69
2022/04/02 01:36:00;;;;;;;3.72;2.08;;;;;;;2.59;84.66;101427.28;5307284;28;20020;-69
2022/04/02 01:38:31;;;;;;;2.88;2.00;;;;;;;2.49;84.59;101429.41;5309194;28;20028;-69
2022/04/02 01:41:02;;;;;;;5.45;2.28;;;;;;;2.50;84.63;101419.91;5310839;28;20531;-69
2022/04/02 01:43:34;;;;;;;3.63;2.42;;;;;;;2.51;83.94;101419.03;5307181;28;20126;-69
2022/04/02 01:46:07;;;;;;;3.72;2.05;;;;;;;2.43;84.36;101414.16;5304760;28;20027;-69
2022/04/02 01:48:39;;;;;;;3.53;2.22;;;;;;;2.48;83.97;101417.41;5307150;28;20023;-70
2022/04/02 01:51:10;;;;;;;3.58;2.10;;;;;;;2.47;84.63;101418.31;5307150;28;20072;-70
2022/04/02 01:53:42;;;;;;;5.47;2.65;;;;;;;2.44;85.34;101421.00;5304527;28;20038;-69
2022/04/02 01:56:13;;;;;;;5.75;2.35;;;;;;;2.40;84.07;101420.31;5305483;28;20523;-70
2022/04/02 01:58:44;;;;;;;6.40;2.08;;;;;;;2.44;85.71;101432.19;5307915;28;20695;-70
2022/04/02 02:01:16;;;;;;;4.65;2.42;;;;;;;2.46;85.25;101426.94;5308005;28;20027;-70
2022/04/02 02:03:47;;;;;;;4.97;2.47;;;;;;;2.47;84.61;101440.75;5304955;28;20122;-70
2022/04/02 02:06:19;;;;;;;6.32;2.78;;;;;;;2.37;85.52;101425.59;5307468;28;20406;-69
2022/04/02 02:08:50;;;;;;;6.78;2.63;;;;;;;2.42;85.12;101439.19;5303297;28;20464;-70
2022/04/02 02:11:21;;;;;;;3.38;2.33;;;;;;;2.39;85.76;101433.31;5305919;28;20035;-70
2022/04/02 02:13:52;;;;;;;4.88;2.30;;;;;;;2.39;84.65;101441.91;5301364;28;20035;-69
2022/04/02 02:16:24;;;;;;;3.58;2.00;;;;;;;2.39;85.26;101434.16;5311557;28;20035;-68
2022/04/02 02:18:55;;;;;;;4.10;2.40;;;;;;;2.40;84.87;101440.16;5304086;28;20294;-69
2022/04/02 02:21:26;;;;;;;3.63;2.40;;;;;;;2.35;84.99;101440.34;5307584;28;20012;-70
2022/04/02 02:23:58;;;;;;;4.28;2.33;;;;;;;2.32;85.19;101437.88;5307954;28;20024;-69
2022/04/02 02:26:30;;;;;;;5.25;2.13;;;;;;;2.32;84.93;101440.47;5307795;28;20545;-70
2022/04/02 02:29:05;;;;;;;3.42;2.50;;;;;;;2.28;86.02;101445.84;5307782;28;20108;-69
2022/04/02 02:31:36;;;;;;;3.17;2.10;;;;;;;2.29;85.00;101450.09;5307415;28;20475;-69
2022/04/02 02:36:57;;;;;;;4.13;2.30;;;;;;;2.24;85.09;101446.84;5305961;28;20479;-69
2022/04/02 02:39:29;;;;;;;4.43;2.10;;;;;;;2.25;84.60;101445.94;5307675;28;20036;-70
2022/04/02 02:42:00;;;;;;;4.97;2.25;;;;;;;2.24;84.43;101454.63;5307298;28;20050;-70
2022/04/02 02:44:31;;;;;;;6.05;2.88;;;;;;;2.20;85.13;101453.91;5306016;28;21028;-68
2022/04/02 02:47:03;;;;;;;3.33;2.28;;;;;;;2.18;84.87;101450.50;5304820;28;20079;-70
2022/04/02 02:49:34;;;;;;;5.40;2.30;;;;;;;2.18;85.31;101464.28;5306436;28;20039;-68
2022/04/02 02:52:06;;;;;;;5.45;2.10;;;;;;;2.19;84.48;101455.63;5307413;28;20023;-70
2022/04/02 02:54:37;;;;;;;3.30;2.05;;;;;;;2.18;85.12;101455.69;5304542;28;20028;-70
2022/04/02 02:57:08;;;;;;;3.42;2.15;;;;;;;2.21;84.62;101458.16;5306261;28;20027;-69
2022/04/02 02:59:40;;;;;;;5.53;2.45;;;;;;;2.18;85.61;101458.28;5306929;28;20023;-70
2022/04/02 03:02:11;;;;;;;4.20;2.67;;;;;;;2.14;83.90;101454.97;5309230;28;20008;-70
2022/04/02 03:04:42;;;;;;;5.20;2.00;;;;;;;2.16;84.10;101462.69;5306296;28;20088;-68
2022/04/02 03:07:14;;;;;;;3.65;2.10;;;;;;;2.20;84.36;101459.06;5305361;28;20057;-70
2022/04/02 03:09:45;;;;;;;4.32;2.10;;;;;;;2.16;84.27;101465.25;5298546;28;20039;-70
2022/04/02 03:12:16;;;;;;;4.85;2.03;;;;;;;2.20;84.47;101464.22;5306786;28;20639;-70
2022/04/02 03:14:48;;;;;;;4.78;2.20;;;;;;;2.14;84.99;101462.72;5305042;28;20359;-70
2022/04/02 03:17:19;;;;;;;3.40;2.15;;;;;;;2.16;83.34;101458.34;5305109;28;20479;-68
2022/04/02 03:19:51;;;;;;;3.28;2.05;;;;;;;2.17;84.12;101457.44;5306682;28;20597;-70
2022/04/02 03:22:24;;;;;;;4.53;2.28;;;;;;;2.16;84.29;101460.94;5304798;28;20047;-70
2022/04/02 03:24:55;;;;;;;4.40;2.17;;;;;;;2.16;85.08;101453.19;5307328;28;20072;-70
2022/04/02 03:27:27;;;;;;;3.72;2.08;;;;;;;2.15;84.82;101461.81;5308267;28;20027;-71
2022/04/02 03:29:58;;;;;;;2.85;1.98;;;;;;;2.13;85.09;101466.22;5306916;28;20416;-70
2022/04/02 03:32:30;;;;;;;3.22;2.00;;;;;;;2.10;84.80;101466.34;5306067;28;20458;-70
2022/04/02 03:35:02;;;;;;;3.80;2.20;;;;;;;2.11;85.25;101457.66;5302853;28;20128;-70
2022/04/02 03:37:37;;;;;;;5.50;2.13;;;;;;;2.15;86.49;101460.97;5308398;28;20077;-69
2022/04/02 03:40:17;;;;;;;2.92;2.00;;;;;;;2.14;86.27;101457.56;5302485;28;20019;-70
2022/04/02 03:42:50;;;;;;;4.68;2.15;;;;;;;2.04;86.45;101456.22;5304513;28;20042;-70
2022/04/02 03:45:22;;;;;;;2.78;2.05;;;;;;;2.03;86.78;101458.88;5313523;28;20111;-70
2022/04/02 03:47:53;;;;;;;3.72;2.30;;;;;;;2.01;86.31;101464.13;5300566;28;20028;-70
2022/04/02 03:50:25;;;;;;;6.22;2.10;;;;;;;1.97;86.95;101466.84;5306616;28;20039;-70
2022/04/02 03:52:56;;;;;;;3.58;2.03;;;;;;;1.97;86.66;101472.03;5305837;28;20098;-70
2022/04/02 03:55:28;;;;;;;4.28;2.10;;;;;;;1.92;86.25;101480.81;5305649;28;20465;-69
2022/04/02 03:58:00;;;;;;;3.88;2.20;;;;;;;1.89;87.16;101480.06;5303997;28;20487;-69
2022/04/02 04:00:31;;;;;;;4.10;2.28;;;;;;;1.89;87.36;101480.06;5304725;28;20058;-70
2022/04/02 04:03:03;;;;;;;5.75;2.40;;;;;;;1.89;86.32;101487.81;5306055;28;20020;-70
2022/04/02 04:05:34;;;;;;;5.28;2.50;;;;;;;1.84;86.91;101480.25;5302318;28;20487;-70
2022/04/02 04:08:05;;;;;;;3.92;2.17;;;;;;;1.84;87.00;101479.41;5303061;28;20103;-70
2022/04/02 04:10:37;;;;;;;4.00;1.80;;;;;;;1.88;86.72;101486.16;5307897;28;20027;-71
2022/04/02 04:13:09;;;;;;;2.70;2.05;;;;;;;1.90;85.09;101497.28;5310979;28;20055;-70
2022/04/02 04:15:40;;;;;;;4.43;2.70;;;;;;;1.84;86.49;101488.00;5311419;28;20339;-69
2022/04/02 04:18:11;;;;;;;4.07;2.20;;;;;;;1.85;86.95;101491.44;5310201;28;20036;-70
2022/04/02 04:20:43;;;;;;;6.05;2.08;;;;;;;1.83;87.30;101501.00;5307816;28;20032;-69
2022/04/02 04:23:14;;;;;;;5.50;2.40;;;;;;;1.86;86.20;101506.91;5312609;28;20059;-70
2022/04/02 04:25:45;;;;;;;3.63;2.20;;;;;;;1.85;86.38;101494.00;5307665;28;20028;-69
2022/04/02 04:28:17;;;;;;;4.20;2.15;;;;;;;1.82;86.21;101497.56;5311504;28;20426;-70
2022/04/02 04:30:48;;;;;;;5.50;2.38;;;;;;;1.82;86.92;101499.28;5304548;28;20031;-70
2022/04/02 04:33:19;;;;;;;3.95;2.35;;;;;;;1.82;88.51;101500.16;5311347;28;20507;-70
2022/04/02 04:35:51;;;;;;;4.32;2.40;;;;;;;1.81;88.21;101505.38;5310757;28;20469;-70
2022/04/02 04:38:22;;;;;;;4.57;2.70;;;;;;;1.79;86.97;101496.84;5310505;28;20358;-70
2022/04/02 04:40:53;;;;;;;6.07;2.28;;;;;;;1.80;86.65;101504.53;5313320;28;20027;-69
2022/04/02 04:43:25;;;;;;;4.05;1.85;;;;;;;1.81;86.64;101500.19;5308822;28;20101;-69
2022/04/02 04:45:56;;;;;;;3.70;2.33;;;;;;;1.80;86.65;101509.69;5308088;28;20023;-71
2022/04/02 04:48:28;;;;;;;4.13;2.58;;;;;;;1.77;86.36;101506.38;5308742;28;20073;-69
2022/04/02 04:51:00;;;;;;;3.58;2.30;;;;;;;1.78;87.24;101519.25;5306998;28;20027;-70
2022/04/02 04:53:32;;;;;;;5.57;2.85;;;;;;;1.79;86.63;101525.28;5306945;28;20028;-69
2022/04/02 04:56:04;;;;;;;3.33;2.10;;;;;;;1.78;87.16;101524.44;5309655;28;20031;-69
2022/04/02 04:58:35;;;;;;;3.25;2.15;;;;;;;1.75;87.42;101536.63;5305969;28;20027;-69
2022/04/02 05:01:08;;;;;;;3.88;2.20;;;;;;;1.74;87.39;101533.16;5307646;28;20048;-70
2022/04/02 05:03:40;;;;;;;4.65;2.75;;;;;;;1.76;86.13;101538.28;5309369;28;20029;-68
2022/04/02 05:06:12;;;;;;;4.32;2.15;;;;;;;1.77;85.52;101537.38;5307621;28;20101;-70
2022/04/02 05:08:43;;;;;;;4.30;2.00;;;;;;;1.74;86.15;101537.50;5310876;28;20392;-69
2022/04/02 05:11:15;;;;;;;5.13;2.50;;;;;;;1.75;85.70;101541.78;5306464;28;20020;-69
2022/04/02 05:13:46;;;;;;;5.30;1.92;;;;;;;1.73;86.41;101544.41;5311073;28;20028;-69
2022/04/02 05:16:17;;;;;;;4.38;1.98;;;;;;;1.75;85.64;101542.63;5306565;28;20024;-69
2022/04/02 05:18:49;;;;;;;3.38;1.98;;;;;;;1.76;84.32;101548.63;5304865;28;20485;-69
2022/04/02 05:21:20;;;;;;;3.42;2.17;;;;;;;1.77;86.22;101553.72;5319773;27;20046;-69
2022/04/02 05:23:52;;;;;;;4.13;2.00;;;;;;;1.78;85.11;101547.69;5310873;28;20032;-69
2022/04/02 05:26:23;;;;;;;4.45;2.00;;;;;;;1.77;84.35;101555.47;5306487;28;20699;-70
2022/04/02 05:28:56;;;;;;;4.65;1.98;;;;;;;1.82;84.37;101566.47;5306631;28;20038;-69
2022/04/02 05:31:27;;;;;;;4.50;2.20;;;;;;;1.80;84.19;101563.94;5308595;28;20113;-69
2022/04/02 05:33:58;;;;;;;5.15;1.88;;;;;;;1.81;84.09;101580.28;5303759;28;20034;-69
2022/04/02 05:36:31;;;;;;;4.22;2.00;;;;;;;1.81;84.87;101575.97;5304013;28;20547;-70
2022/04/02 05:39:02;;;;;;;5.05;2.03;;;;;;;1.83;84.43;101579.34;5312307;28;20117;-69
2022/04/02 05:41:33;;;;;;;4.53;2.13;;;;;;;1.86;84.74;101579.25;5307359;28;20023;-70
2022/04/02 05:44:06;;;;;;;3.05;1.88;;;;;;;1.87;84.75;101587.81;5305790;28;20028;-69
2022/04/02 05:46:38;;;;;;;3.92;2.53;;;;;;;1.91;84.62;101589.41;5308333;28;20023;-69
2022/04/02 05:49:09;;;;;;;3.45;2.30;;;;;;;1.89;84.24;101599.78;5308334;28;20077;-69
2022/04/02 05:51:41;;;;;;;4.53;2.42;;;;;;;1.92;84.64;101593.66;5304699;28;20026;-69
2022/04/02 05:54:12;;;;;;;3.85;1.60;;;;;;;1.95;85.45;101603.88;5308753;28;20030;-71
2022/04/02 05:56:43;;;;;;;3.22;2.20;;;;;;;1.98;85.04;101600.34;5304476;28;20062;-70
2022/04/02 05:59:15;;;;;;;4.20;2.30;;;;;;;1.94;85.93;101600.47;5307103;28;20303;-69
2022/04/02 06:01:47;;;;;;;4.38;2.28;;;;;;;1.99;85.13;101609.78;5303125;28;20112;-69
2022/04/02 06:04:18;;;;;;;3.80;2.17;;;;;;;1.99;84.59;101615.78;5298008;28;20411;-70
2022/04/02 06:06:50;;;;;;;4.72;1.85;;;;;;;2.04;84.87;101607.88;5295858;28;20024;-69
2022/04/02 06:09:21;;;;;;;4.88;2.22;;;;;;;2.04;85.14;101619.03;5303016;28;20054;-69
2022/04/02 06:11:52;;;;;;;4.65;2.22;;;;;;;2.05;85.06;101622.50;5306343;28;20030;-70
2022/04/02 06:14:23;;;;;;;5.05;2.25;;;;;;;2.11;85.23;101619.66;5307824;28;20028;-69
2022/04/02 06:16:55;;;;;;;4.53;2.50;;;;;;;2.07;85.42;101613.75;5303217;28;20067;-71
2022/04/02 06:19:26;;;;;;;4.45;2.20;;;;;;;2.18;84.96;101619.38;5307573;28;20052;-70
2022/04/02 06:21:57;;;;;;;3.38;2.50;;;;;;;2.18;85.84;101626.28;5307460;28;20023;-70
2022/04/02 06:24:28;;;;;;;5.55;2.67;;;;;;;2.19;86.05;101625.38;5300830;28;20438;-71
2022/04/02 06:27:00;;;;;;;3.80;1.98;;;;;;;2.20;85.99;101632.28;5310216;28;20016;-70
2022/04/02 06:29:31;;;;;;;4.32;2.20;;;;;;;2.25;86.80;101635.50;5309485;28;20027;-69
2022/04/02 06:32:04;;;;;;;4.30;2.13;;;;;;;2.28;85.92;101642.31;5304367;28;20464;-71
2022/04/02 06:34:35;;;;;;;5.57;2.50;;;;;;;2.30;85.26;101640.50;5308568;28;20020;-69
2022/04/02 06:37:06;;;;;;;3.45;2.10;;;;;;;2.33;85.76;101637.81;5306643;28;20030;-70
2022/04/02 06:39:38;;;;;;;4.75;2.20;;;;;;;2.31;85.68;101632.72;5305894;28;20032;-69
2022/04/02 06:42:09;;;;;;;3.10;1.83;;;;;;;2.38;84.73;101646.22;5307401;28;20028;-70
2022/04/02 06:44:40;;;;;;;3.28;1.95;;;;;;;2.42;85.95;101647.78;5304301;28;20439;-69
2022/04/02 06:47:12;;;;;;;4.03;2.40;;;;;;;2.44;85.51;101661.53;5306943;28;20100;-69
2022/04/02 06:49:43;;;;;;;4.78;2.75;;;;;;;2.47;85.05;101656.25;5307202;28;20480;-70
2022/04/02 06:52:15;;;;;;;4.57;2.95;;;;;;;2.52;85.17;101662.06;5305397;28;20077;-70
2022/04/02 06:54:46;;;;;;;3.25;2.20;;;;;;;2.57;86.48;101660.13;5309013;28;20023;-69
2022/04/02 06:57:20;;;;;;;5.00;2.05;;;;;;;2.63;84.70;101672.00;5308479;28;20015;-69
2022/04/02 06:59:52;;;;;;;5.30;2.20;;;;;;;2.62;85.12;101672.94;5303302;28;20388;-69
2022/04/02 07:02:23;;;;;;;4.07;2.25;;;;;;;2.66;84.06;101672.75;5306178;28;20041;-69
2022/04/02 07:04:54;;;;;;;5.22;2.28;;;;;;;2.70;83.97;101676.06;5308225;28;20061;-68
2022/04/02 07:07:26;;;;;;;5.40;2.17;;;;;;;2.77;84.89;101677.50;5304594;28;20089;-70
2022/04/02 07:09:57;;;;;;;5.47;2.47;;;;;;;2.80;85.08;101679.94;5309828;28;20101;-69
2022/04/02 07:12:29;;;;;;;5.38;2.67;;;;;;;2.86;85.07;101677.13;5305513;28;20027;-69
2022/04/02 07:15:01;;;;;;;4.15;2.20;;;;;;;2.95;84.58;101686.28;5304553;28;20039;-70
2022/04/02 07:17:34;;;;;;;5.22;2.58;;;;;;;3.02;85.27;101692.06;5305587;28;20036;-69
2022/04/02 07:20:08;;;;;;;3.42;2.15;;;;;;;3.02;83.55;101689.47;5307165;28;20051;-69
2022/04/02 07:22:40;;;;;;;5.03;2.03;;;;;;;3.07;83.45;101701.34;5308012;28;20016;-69
2022/04/02 07:25:13;;;;;;;12.48;3.15;;;;;;;3.13;84.40;101695.06;5302776;28;20487;-70
2022/04/02 07:27:46;;;;;;;5.10;2.15;;;;;;;3.21;83.46;101699.94;5308084;28;20023;-70
2022/04/02 07:30:18;;;;;;;7.05;2.60;;;;;;;3.24;83.70;101702.41;5310145;28;20051;-70
2022/04/02 07:32:49;;;;;;;7.28;2.65;;;;;;;3.32;82.97;101714.13;5303283;28;20459;-69
2022/04/02 07:35:21;;;;;;;7.18;3.20;;;;;;;3.34;82.34;101714.09;5304126;28;20023;-70
2022/04/02 07:38:09;;;;;;;7.15;3.05;;;;;;;3.52;84.05;101717.66;5307579;28;20020;-69
2022/04/02 07:40:49;;;;;;;9.13;2.47;;;;;;;3.50;81.88;101722.91;5305545;28;20110;-69
2022/04/02 07:43:41;;;;;;;6.03;2.55;;;;;;;3.64;81.63;101722.34;5306284;28;20439;-69
2022/04/02 07:46:18;;;;;;;3.90;2.38;;;;;;;3.66;81.91;101728.28;5307685;28;20384;-69
2022/04/02 07:48:50;;;;;;;4.22;2.85;;;;;;;3.70;82.34;101726.41;5309605;28;20109;-70
2022/04/02 07:51:26;;;;;;;5.68;2.78;;;;;;;3.81;80.96;101722.47;5298115;28;20026;-71
2022/04/02 07:54:02;;;;;;;5.75;2.60;;;;;;;3.96;82.49;101723.56;5307436;28;20042;-72
2022/04/02 07:56:38;;;;;;;5.78;2.50;;;;;;;4.02;80.09;101725.91;5305050;28;20092;-71
2022/04/02 07:59:22;;;;;;;3.22;2.00;;;;;;;4.15;80.31;101729.63;5307328;28;20026;-70
2022/04/02 08:01:55;;;;;;;;;;;;;;;4.48;79.51;101742.03;5307164;28;20016;-71
2022/04/02 08:04:28;;;;;;;4.80;2.50;;;;;;;4.20;77.66;101731.16;5305831;28;19916;-71
2022/04/02 08:06:59;;;;;;;4.73;2.80;;;;;;;4.27;78.32;101722.22;5303443;28;20097;-71
2022/04/02 08:09:31;;;;;;;5.30;2.30;;;;;;;4.31;80.26;101734.13;5305607;28;20321;-72
2022/04/02 08:12:03;;;;;;;7.35;2.80;;;;;;;4.36;78.50;101742.56;5306791;28;20024;-71
2022/04/02 08:14:39;;;;;;;6.05;2.67;;;;;;;4.35;79.77;101731.34;5303530;28;20026;-70
2022/04/02 08:17:10;;;;;;;4.50;2.65;;;;;;;4.41;79.53;101737.19;5298925;28;20111;-70
2022/04/02 08:19:41;;;;;;;5.63;2.95;;;;;;;4.42;80.14;101747.47;5305750;28;20143;-70
2022/04/02 08:22:13;;;;;;;8.00;2.80;;;;;;;4.55;79.86;101742.59;5304695;28;20480;-71
2022/04/02 08:24:45;;;;;;;5.70;2.78;;;;;;;4.54;79.72;101741.72;5306891;28;20504;-70
2022/04/02 08:27:24;;;;;;;4.75;2.70;;;;;;;4.72;79.71;101749.59;5300576;28;20488;-71
2022/04/02 08:30:09;;;;;;;4.57;3.05;;;;;;;4.70;79.57;101751.41;5297451;28;20038;-70
2022/04/02 08:33:18;;;;;;;6.18;2.80;;;;;;;4.83;79.24;101752.56;5300610;28;20373;-70
2022/04/02 08:35:53;;;;;;;5.00;2.72;;;;;;;4.71;78.23;101748.75;5299166;28;20036;-70
2022/04/02 08:38:36;;;;;;;5.72;2.95;;;;;;;4.78;78.95;101754.53;5296338;28;20035;-70
2022/04/02 08:41:27;;;;;;;8.07;2.83;;;;;;;4.93;79.38;101751.22;5293861;28;20085;-71
2022/04/02 08:44:24;;;;;;;5.50;2.92;;;;;;;4.86;78.67;101765.41;5303414;28;20092;-71
2022/04/02 08:47:09;;;;;;;5.47;2.70;;;;;;;4.88;77.90;101766.16;5299212;28;20015;-71
2022/04/02 08:49:42;;;;;;;6.40;3.20;;;;;;;4.80;78.01;101779.47;5302817;28;20397;-70
2022/04/02 08:52:13;;;;;;;5.68;2.67;;;;;;;4.85;77.24;101768.91;5302811;28;20019;-71
2022/04/02 08:55:13;;;;;;;6.28;2.78;;;;;;;4.98;77.16;101774.38;5301052;28;20043;-70
2022/04/02 08:57:53;;;;;;;4.10;2.67;;;;;;;4.97;77.87;101772.69;5303818;28;20023;-70
2022/04/02 09:00:27;;;;;;;5.50;2.55;;;;;;;4.83;77.19;101779.34;5304892;28;20059;-71
2022/04/02 09:03:13;;;;;;;;;;;;;;;5.30;77.79;101780.63;5300797;28;20024;-70
2022/04/02 09:05:56;;;;;;;6.13;2.90;;;;;;;5.04;78.96;101785.31;5301263;28;20007;-71
2022/04/02 09:08:46;;;;;;;6.90;3.28;;;;;;;5.09;79.77;101790.28;5302100;28;20067;-71
2022/04/02 09:11:24;;;;;;;5.70;2.92;;;;;;;4.94;78.63;101789.25;5302654;28;20032;-70
2022/04/02 09:14:26;;;;;;;5.95;3.42;;;;;;;5.17;78.20;101790.78;5302949;28;20054;-70
2022/04/02 09:17:23;;;;;;;7.95;3.80;;;;;;;5.06;77.91;101800.81;5304438;28;20065;-71
2022/04/02 09:20:08;;;;;;;8.82;3.72;;;;;;;4.99;78.06;101802.00;5261616;28;20493;-68
2022/04/02 09:23:19;;;;;;;5.07;2.90;;;;;;;5.16;78.48;101803.84;5307517;28;20027;-70
2022/04/02 09:26:12;;;;;;;4.35;2.92;;;;;;;5.21;78.29;101802.69;5298831;28;20028;-70
2022/04/02 09:28:55;;;;;;;5.78;3.42;;;;;;;5.19;79.08;101809.75;5309811;28;20043;-69
2022/04/02 09:32:07;;;;;;;5.85;3.17;;;;;;;5.39;79.44;101808.78;5302355;28;20027;-69
2022/04/02 09:35:03;;;;;;;5.20;3.20;;;;;;;5.47;79.13;101811.88;5302005;28;20584;-69
2022/04/02 09:38:22;;;;;;;9.10;3.63;;;;;;;5.71;79.00;101807.22;5302172;28;20070;-69
2022/04/02 09:41:10;;;;;;;7.05;3.08;;;;;;;5.57;76.62;101809.69;5307559;28;20028;-70
2022/04/02 09:43:59;;;;;;;5.65;3.50;;;;;;;5.66;75.47;101808.38;5306113;28;20027;-69
2022/04/02 09:47:08;;;;;;;6.10;3.05;;;;;;;5.64;77.16;101812.78;5306799;28;20107;-70
2022/04/02 09:49:48;;;;;;;5.63;3.25;;;;;;;5.42;76.12;101823.38;5307385;28;20027;-69
2022/04/02 09:52:24;;;;;;;5.25;3.22;;;;;;;5.47;75.81;101818.81;5306076;28;20024;-71
2022/04/02 09:55:12;;;;;;;5.28;3.17;;;;;;;5.66;76.85;101811.81;5307255;28;20031;-70
2022/04/02 09:58:11;;;;;;;4.97;3.13;;;;;;;5.90;75.34;101809.75;5309653;28;20020;-70
2022/04/02 10:01:03;;;;;;;7.35;2.97;;;;;;;6.03;75.26;101815.25;5307307;28;20059;-70
2022/04/02 10:04:05;;;;;;;5.82;3.10;;;;;;;6.09;74.99;101807.09;5309724;28;20029;-71
2022/04/02 10:06:41;;;;;;;5.07;2.85;;;;;;;6.05;72.95;101816.81;5310249;28;20023;-71
2022/04/02 10:09:14;;;;;;;5.85;3.10;;;;;;;6.07;73.84;101801.16;5308385;28;20070;-71
2022/04/02 10:11:54;;;;;;;4.85;2.50;;;;;;;6.13;71.70;101815.59;5303902;28;20128;-70
2022/04/02 10:14:28;;;;;;;4.85;2.88;;;;;;;6.06;69.41;101808.13;5300604;28;20122;-70
2022/04/02 10:17:08;;;;;;;5.10;3.03;;;;;;;6.08;69.33;101808.88;5301792;28;20020;-70
2022/04/02 10:19:39;;;;;;;4.47;2.95;;;;;;;6.01;71.23;101807.50;5302191;28;20087;-69
2022/04/02 10:22:12;;;;;;;4.03;2.53;;;;;;;6.04;69.63;101794.34;5307470;28;20114;-69
2022/04/02 10:24:50;;;;;;;4.63;2.60;;;;;;;6.06;68.67;101796.84;5306587;28;20027;-71
2022/04/02 10:27:32;;;;;;;6.35;2.60;;;;;;;5.98;69.67;101802.44;5303724;28;20051;-70
2022/04/02 10:30:11;;;;;;;5.50;3.00;;;;;;;5.82;72.47;101802.34;5306215;28;20032;-70
2022/04/02 10:35:46;;;;;;;4.30;3.00;;;;;;;5.56;74.11;101803.59;5305581;28;20083;-70
2022/04/02 10:38:38;;;;;;;7.70;2.85;;;;;;;5.47;76.60;101800.63;5309619;28;20031;-68
2022/04/02 10:41:13;;;;;;;6.35;3.30;;;;;;;5.45;77.08;101805.88;5306593;28;20729;-70
2022/04/02 10:43:59;;;;;;;8.45;3.30;;;;;;;5.40;77.48;101805.28;5306819;28;20024;-70
2022/04/02 10:46:32;;;;;;;5.32;2.53;;;;;;;5.29;74.30;101803.19;5304834;28;20030;-69
2022/04/02 10:49:05;;;;;;;5.43;2.90;;;;;;;5.28;74.37;101813.66;5300771;28;20040;-68
2022/04/02 10:51:40;;;;;;;5.90;3.25;;;;;;;5.33;76.61;101803.88;5305679;28;20027;-69
2022/04/02 10:54:13;;;;;;;6.18;3.05;;;;;;;5.41;76.37;101809.53;5296850;28;20060;-69
2022/04/02 10:56:46;;;;;;;;;;;;;;;5.91;75.59;101811.47;5298738;28;20123;-68
2022/04/02 10:59:18;;;;;;;5.38;2.67;;;;;;;5.50;77.63;101808.28;5296684;28;19916;-69
2022/04/02 11:02:01;;;;;;;4.35;2.85;;;;;;;5.48;76.17;101810.94;5300729;28;20059;-69
2022/04/02 11:04:53;;;;;;;6.20;3.45;;;;;;;5.55;75.41;101809.72;5303168;28;20149;-69
2022/04/02 11:07:29;;;;;;;4.65;2.97;;;;;;;5.39;77.37;101814.00;5298436;28;20389;-70
2022/04/02 11:10:01;;;;;;;5.18;2.85;;;;;;;5.32;74.91;101817.78;5307127;28;20027;-70
2022/04/02 11:12:38;;;;;;;6.47;3.03;;;;;;;5.25;75.79;101800.81;5299969;28;20020;-70
2022/04/02 11:15:21;;;;;;;6.15;3.40;;;;;;;5.33;77.60;101809.91;5304767;28;21096;-68
2022/04/02 11:17:55;;;;;;;6.28;3.65;;;;;;;5.32;78.33;101807.41;5306128;28;20069;-70
2022/04/02 11:20:31;;;;;;;5.47;3.05;;;;;;;5.41;73.31;101803.50;5307334;28;20039;-70
2022/04/02 11:23:20;;;;;;;3.75;2.50;;;;;;;5.53;74.08;101798.59;5300566;28;20284;-70
2022/04/02 11:26:01;;;;;;;4.20;2.72;;;;;;;5.52;72.88;101801.25;5304424;28;20023;-70
2022/04/02 11:28:44;;;;;;;4.70;2.58;;;;;;;5.67;73.68;101787.50;5306084;28;20024;-70
2022/04/02 11:31:27;;;;;;;3.97;2.50;;;;;;;5.88;72.20;101796.00;5307458;28;20019;-70
2022/04/02 11:34:06;;;;;;;5.33;2.57;;;;;;;6.00;72.65;101789.38;5304636;28;20020;-70
2022/04/02 11:36:43;;;;;;;5.53;3.10;;;;;;;6.18;69.64;101792.81;5300815;28;20110;-69
2022/04/02 11:39:25;;;;;;;4.95;2.65;;;;;;;6.26;69.21;101796.69;5302742;28;20035;-68
2022/04/02 11:42:01;;;;;;;3.88;2.60;;;;;;;6.24;68.23;101789.88;5302631;28;20027;-70
2022/04/02 11:44:38;;;;;;;3.80;2.50;;;;;;;6.22;68.83;101800.38;5302559;28;20020;-69
2022/04/02 11:47:14;;;;;;;5.90;2.58;;;;;;;6.12;66.68;101798.31;5306776;28;20025;-68
2022/04/02 11:49:48;;;;;;;3.72;2.33;;;;;;;6.09;64.18;101796.69;5298269;28;20038;-69
2022/04/02 11:52:19;;;;;;;4.88;2.63;;;;;;;6.09;66.98;101799.31;5301846;28;20639;-69
2022/04/02 11:54:51;;;;;;;5.93;2.30;;;;;;;6.18;63.77;101798.84;5303927;28;20023;-72
2022/04/02 11:57:22;;;;;;;3.33;2.00;;;;;;;6.25;63.35;101804.56;5303044;28;20085;-69
2022/04/02 12:00:01;;;;;;;4.63;2.20;;;;;;;6.43;62.94;101808.00;5302290;28;20039;-68
2022/04/02 12:02:43;;;;;;;3.65;1.98;;;;;;;6.57;60.91;101792.50;5301959;28;20063;-69
2022/04/02 12:05:16;;;;;;;4.45;2.17;;;;;;;6.68;54.92;101795.38;5303129;28;20016;-68
2022/04/02 12:07:51;;;;;;;3.13;1.80;;;;;;;6.88;53.52;101794.28;5302139;28;20382;-69
2022/04/02 12:10:25;;;;;;;4.30;1.77;;;;;;;7.06;54.13;101805.50;5291960;28;20032;-70
2022/04/02 12:12:58;;;;;;;3.47;2.17;;;;;;;7.14;53.94;101802.47;5299504;28;20067;-69
2022/04/02 12:15:30;;;;;;;4.05;1.98;;;;;;;7.02;54.21;101798.78;5303148;28;20034;-70
2022/04/02 12:18:07;;;;;;;3.75;1.80;;;;;;;7.04;55.64;101802.94;5304789;28;20028;-69